Time;durP1;ratioP1;P1;durP2;ratioP2;P2;SDS_P1;SDS_P2;PMS_P1;PMS_P2;Temp;Humidity;BMP_temperature;BMP_pressure;BME280_temperature;BME280_humidity;BME280_pressure;Samples;Min_cycle;Max_cycle;Signal;HPM_P1;HPM_P2
2021/12/21 00:00:14;;;;;;;;;19.50;19.00;;;;;-147.17;98.84;50481.81;4953579;28;51074;-57
2021/12/21 00:02:41;;;;;;;;;15.25;14.25;;;;;-147.17;98.97;50529.06;4954170;28;51250;-56
2021/12/21 00:05:09;;;;;;;;;16.00;16.00;;;;;-147.17;99.35;50525.13;4954302;28;51948;-56
2021/12/21 00:07:34;;;;;;;;;19.50;17.00;;;;;-147.17;99.12;50531.03;4953344;28;51019;-54
2021/12/21 00:10:00;;;;;;;;;15.25;15.00;;;;;-147.17;99.44;50471.97;4951052;28;52641;-58
2021/12/21 00:12:29;;;;;;;;;19.50;18.00;;;;;-147.17;99.09;50534.97;4954532;28;51092;-56
2021/12/21 00:15:02;;;;;;;;;14.00;13.25;;;;;-147.17;99.29;50519.22;4953013;28;51089;-57
2021/12/21 00:25:19;;;;;;;;;11.00;11.00;;;;;-147.17;99.36;50525.13;4952865;28;51874;-57
2021/12/21 00:27:47;;;;;;;;;16.00;15.25;;;;;-147.17;99.19;50505.44;4953830;28;51143;-57
2021/12/21 00:30:13;;;;;;;;;23.50;18.75;;;;;-147.17;99.24;50505.44;4954412;28;51049;-57
2021/12/21 00:32:38;;;;;;;;;18.25;17.50;;;;;-147.17;99.14;50525.13;4952402;28;51003;-56
2021/12/21 00:35:04;;;;;;;;;16.00;15.50;;;;;-147.17;99.11;50489.69;4945960;28;51051;-56
2021/12/21 00:37:30;;;;;;;;;17.75;16.25;;;;;-147.17;98.83;50511.34;4953760;28;50969;-56
2021/12/21 00:39:56;;;;;;;;;15.75;14.00;;;;;-147.17;98.75;50533.00;4954298;28;51087;-57
2021/12/21 00:42:21;;;;;;;;;15.75;14.25;;;;;-147.17;98.34;50548.75;4953965;28;50997;-57
2021/12/21 00:44:47;;;;;;;;;13.25;11.50;;;;;-147.17;98.17;50517.25;4952356;28;51802;-57
2021/12/21 00:47:14;;;;;;;;;13.75;12.75;;;;;-147.17;98.62;50515.28;4952517;28;51052;-56
2021/12/21 00:49:46;;;;;;;;;13.75;12.25;;;;;-147.17;98.02;50525.13;4953072;28;51076;-56
2021/12/21 00:52:13;;;;;;;;;15.50;14.50;;;;;-147.17;98.42;50505.44;4953062;28;50890;-56
2021/12/21 00:54:38;;;;;;;;;12.00;10.00;;;;;-147.17;98.39;50521.19;4953397;28;51878;-56
2021/12/21 00:57:04;;;;;;;;;15.00;14.00;;;;;-147.17;98.37;50489.69;4952018;28;51139;-56
2021/12/21 00:59:31;;;;;;;;;12.00;11.50;;;;;-147.17;98.42;50497.56;4951279;28;51298;-56
2021/12/21 01:01:56;;;;;;;;;11.25;11.00;;;;;-147.17;98.44;50517.25;4978123;28;51019;-56
2021/12/21 01:04:28;;;;;;;;;16.00;14.25;;;;;-147.17;98.66;50501.50;4956217;28;52715;-56
2021/12/21 01:12:14;;;;;;;;;15.00;15.00;;;;;-147.17;98.31;50513.31;4956891;28;50967;-55
2021/12/21 01:17:30;;;;;;;;;17.50;13.00;;;;;-147.17;98.20;50534.97;4954975;28;51246;-56
2021/12/21 01:20:25;;;;;;;;;15.00;12.00;;;;;-147.17;98.23;50529.06;4955883;28;50914;-57
2021/12/21 01:30:34;;;;;;;;;14.75;12.75;;;;;-147.17;98.11;50533.00;4956493;28;51110;-55
2021/12/21 01:35:37;;;;;;;;;14.25;13.00;;;;;-147.17;98.07;50499.53;4956485;28;50900;-55
2021/12/21 01:43:42;;;;;;;;;15.75;12.75;;;;;-147.17;98.36;50525.13;4956666;28;51470;-56
2021/12/21 01:51:36;;;;;;;;;17.50;16.00;;;;;-147.17;98.59;50560.56;4955773;28;51201;-55
2021/12/21 01:54:02;;;;;;;;;16.25;16.00;;;;;-147.17;98.63;50491.66;4956905;28;51185;-56
2021/12/21 01:56:28;;;;;;;;;17.25;16.75;;;;;-147.17;98.39;50534.97;4954627;28;54000;-56
2021/12/21 01:58:53;;;;;;;;;19.25;16.50;;;;;-147.17;98.70;50527.09;4954235;28;51225;-56
2021/12/21 02:01:22;;;;;;;;;22.25;16.25;;;;;-147.17;98.79;50511.34;4954786;28;53245;-56
2021/12/21 02:03:48;;;;;;;;;16.50;16.25;;;;;-147.17;98.68;50497.56;4956901;28;51072;-56
2021/12/21 02:06:17;;;;;;;;;16.00;14.25;;;;;-147.17;98.52;50513.31;4952345;28;51992;-56
2021/12/21 02:08:44;;;;;;;;;17.25;15.50;;;;;-147.17;98.43;50509.38;4956388;28;51176;-56
2021/12/21 02:11:09;;;;;;;;;16.75;16.75;;;;;-147.17;98.65;50523.16;4953534;28;51047;-56
2021/12/21 02:13:37;;;;;;;;;16.25;16.00;;;;;-147.17;98.64;50525.13;4953504;28;51123;-57
2021/12/21 02:16:04;;;;;;;;;15.25;14.00;;;;;-147.17;98.69;50517.25;4969001;28;51943;-56
2021/12/21 02:18:45;;;;;;;;;13.75;11.75;;;;;-147.17;98.91;50527.09;4953354;28;50997;-56
2021/12/21 02:23:42;;;;;;;;;14.25;13.50;;;;;-147.17;98.67;50525.13;4955448;28;53569;-57
2021/12/21 02:26:21;;;;;;;;;16.00;15.75;;;;;-147.17;98.85;50511.34;4954473;28;51468;-56
2021/12/21 02:29:08;;;;;;;;;16.00;15.00;;;;;-147.17;98.84;50533.00;4954729;28;51113;-55
2021/12/21 02:31:32;;;;;;;;;13.00;12.00;;;;;-147.17;98.91;50505.44;4956038;28;51170;-56
2021/12/21 02:33:57;;;;;;;;;16.00;16.00;;;;;-147.17;98.81;50499.53;4954816;28;51238;-54
2021/12/21 02:36:22;;;;;;;;;13.25;12.50;;;;;-147.17;99.09;50529.06;4941767;28;51626;-56
2021/12/21 02:38:48;;;;;;;;;15.00;14.00;;;;;-147.17;98.71;50536.94;4955927;28;51099;-55
2021/12/21 02:41:14;;;;;;;;;20.50;19.00;;;;;-147.17;98.97;50509.38;4955882;28;51016;-55
2021/12/21 02:43:39;;;;;;;;;16.75;15.50;;;;;-147.17;98.99;50523.16;4952967;28;51390;-55
2021/12/21 02:46:05;;;;;;;;;16.75;15.00;;;;;-147.17;98.79;50517.25;4959837;28;51205;-56
2021/12/21 02:48:32;;;;;;;;;16.75;16.00;;;;;-147.17;98.96;50525.13;4955859;28;51016;-57
2021/12/21 02:50:57;;;;;;;;;16.00;15.00;;;;;-147.17;98.94;50497.56;4954891;28;51131;-55
2021/12/21 02:53:22;;;;;;;;;16.50;15.50;;;;;-147.17;98.93;50521.19;4955862;28;51074;-57
2021/12/21 02:55:48;;;;;;;;;19.25;15.75;;;;;-147.17;98.93;50548.75;4954680;28;51620;-55
2021/12/21 02:58:13;;;;;;;;;16.00;15.00;;;;;-147.17;98.77;50517.25;4954078;28;51233;-56
2021/12/21 03:00:39;;;;;;;;;15.25;12.75;;;;;-147.17;99.15;50511.34;4954515;28;51122;-55
2021/12/21 03:03:12;;;;;;;;;21.50;20.50;;;;;-147.17;99.14;50503.47;4954699;28;51115;-55
2021/12/21 03:05:38;;;;;;;;;20.00;18.00;;;;;-147.17;99.17;50489.69;4952689;28;51164;-56
2021/12/21 03:11:08;;;;;;;;;21.75;20.75;;;;;-147.17;99.61;50548.75;4954220;28;51278;-56
2021/12/21 03:16:18;;;;;;;;;18.75;17.25;;;;;-147.17;99.45;50505.44;4953388;28;51076;-56
2021/12/21 03:18:45;;;;;;;;;20.00;17.00;;;;;-147.17;99.75;50491.66;4953859;28;51131;-56
2021/12/21 03:21:10;;;;;;;;;17.25;15.50;;;;;-147.17;100.00;50529.06;4954516;28;51097;-56
2021/12/21 03:23:36;;;;;;;;;22.75;16.50;;;;;-147.17;100.00;50489.69;4953593;28;50924;-55
2021/12/21 03:26:01;;;;;;;;;19.50;18.50;;;;;-147.17;100.00;50525.13;4954097;28;51813;-55
2021/12/21 03:28:27;;;;;;;;;15.50;14.00;;;;;-147.17;100.00;50509.38;4955281;28;51008;-56
2021/12/21 03:30:53;;;;;;;;;16.75;15.75;;;;;-147.17;100.00;50536.94;4942346;28;50981;-56
2021/12/21 03:33:18;;;;;;;;;19.00;15.50;;;;;-147.17;100.00;50497.56;4954668;28;50937;-56
2021/12/21 03:35:44;;;;;;;;;18.00;15.00;;;;;-147.17;100.00;50487.72;4952635;28;51912;-56
2021/12/21 03:38:09;;;;;;;;;14.25;12.25;;;;;-147.17;100.00;50495.59;4954171;28;51213;-56
2021/12/21 03:40:35;;;;;;;;;18.25;15.50;;;;;-147.17;100.00;50505.44;4955034;28;50889;-55
2021/12/21 03:43:01;;;;;;;;;16.75;14.75;;;;;-147.17;100.00;50470.00;4954875;28;50920;-56
2021/12/21 03:45:31;;;;;;;;;18.75;15.25;;;;;-147.17;100.00;50509.38;4953743;28;51140;-56
2021/12/21 03:47:57;;;;;;;;;13.25;12.00;;;;;-147.17;100.00;50485.75;4951467;28;51138;-56
2021/12/21 03:50:22;;;;;;;;;15.50;15.00;;;;;-147.17;100.00;50481.81;4952394;28;51167;-56
2021/12/21 03:52:48;;;;;;;;;15.00;11.25;;;;;-147.17;100.00;50485.75;4952469;28;51163;-55
2021/12/21 03:55:14;;;;;;;;;17.00;15.75;;;;;-147.17;100.00;50477.88;4954680;28;51738;-56
2021/12/21 03:57:40;;;;;;;;;12.25;11.00;;;;;-147.17;100.00;50505.44;4954374;28;51036;-56
2021/12/21 04:00:11;;;;;;;;;12.75;12.75;;;;;-147.17;100.00;50477.88;4954510;28;51319;-57
2021/12/21 04:02:36;;;;;;;;;16.25;14.00;;;;;-147.17;100.00;50481.81;4954022;28;51268;-56
2021/12/21 04:05:03;;;;;;;;;15.25;14.50;;;;;-147.17;100.00;50491.66;4953449;28;51634;-55
2021/12/21 04:07:28;;;;;;;;;16.75;15.50;;;;;-147.17;100.00;50487.72;4954304;28;50913;-56
2021/12/21 04:09:54;;;;;;;;;13.00;10.75;;;;;-147.17;100.00;50481.81;4953432;28;51159;-57
2021/12/21 04:12:20;;;;;;;;;20.75;20.00;;;;;-147.17;100.00;50509.38;4953420;28;51261;-55
2021/12/21 04:14:45;;;;;;;;;19.00;16.00;;;;;-147.17;100.00;50505.44;4953617;28;52132;-56
2021/12/21 04:17:18;;;;;;;;;18.75;16.25;;;;;-147.17;100.00;50509.38;4954321;28;50989;-56
2021/12/21 04:19:43;;;;;;;;;19.00;17.75;;;;;-147.17;100.00;50475.91;4952947;28;51114;-56
2021/12/21 04:22:09;;;;;;;;;23.00;19.00;;;;;-147.17;100.00;50454.25;4947497;28;51067;-57
2021/12/21 04:24:34;;;;;;;;;21.75;21.00;;;;;-147.17;100.00;50489.69;4953937;28;51979;-56
2021/12/21 04:27:00;;;;;;;;;18.50;18.25;;;;;-147.17;100.00;50477.88;4953710;28;50972;-56
2021/12/21 04:29:25;;;;;;;;;28.25;21.00;;;;;-147.17;100.00;50466.06;4952622;28;50976;-56
2021/12/21 04:31:51;;;;;;;;;16.25;16.00;;;;;-147.17;100.00;50505.44;4953716;28;50917;-56
2021/12/21 04:34:16;;;;;;;;;22.00;20.00;;;;;-147.17;100.00;50497.56;4952370;28;52836;-56
2021/12/21 04:36:44;;;;;;;;;17.50;15.75;;;;;-147.17;100.00;50481.81;4946782;28;51070;-56
2021/12/21 04:39:19;;;;;;;;;17.75;17.50;;;;;-147.17;100.00;50489.69;4948797;28;51044;-56
2021/12/21 04:41:45;;;;;;;;;21.50;18.25;;;;;-147.17;100.00;50481.81;4952734;28;51342;-56
2021/12/21 04:44:10;;;;;;;;;23.75;22.75;;;;;-147.17;100.00;50497.56;4951998;28;51811;-55
2021/12/21 04:46:36;;;;;;;;;16.75;15.50;;;;;-147.17;100.00;50495.59;4954129;28;51011;-55
2021/12/21 04:49:01;;;;;;;;;20.50;19.50;;;;;-147.17;100.00;50462.13;4952771;28;51084;-56
2021/12/21 04:51:27;;;;;;;;;18.25;15.75;;;;;-147.17;100.00;50471.97;4953806;28;50968;-56
2021/12/21 04:53:52;;;;;;;;;8.50;6.50;;;;;-147.17;100.00;50477.88;4953434;28;51832;-56
2021/12/21 04:56:17;;;;;;;;;18.25;17.00;;;;;-147.17;100.00;50497.56;4951636;28;51178;-55
2021/12/21 04:58:43;;;;;;;;;19.75;19.75;;;;;-147.17;100.00;50475.91;4952535;28;51041;-56
2021/12/21 05:01:08;;;;;;;;;17.75;17.75;;;;;-147.17;100.00;50475.91;4953419;28;51110;-55
2021/12/21 05:03:34;;;;;;;;;19.00;13.50;;;;;-147.17;100.00;50462.13;4953757;28;51221;-57
2021/12/21 05:06:00;;;;;;;;;20.00;18.00;;;;;-147.17;100.00;50471.97;4953565;28;51130;-56
2021/12/21 05:08:30;;;;;;;;;18.25;16.75;;;;;-147.17;100.00;50483.78;4952860;28;51095;-58
2021/12/21 05:11:00;;;;;;;;;15.25;15.25;;;;;-147.17;100.00;50481.81;4952173;28;50951;-55
2021/12/21 05:13:28;;;;;;;;;10.00;10.00;;;;;-147.17;100.00;50479.84;4952584;28;51860;-55
2021/12/21 05:15:54;;;;;;;;;5.00;5.00;;;;;-147.17;100.00;50477.88;4952716;28;51032;-55
2021/12/21 05:18:20;;;;;;;;;11.00;11.00;;;;;-147.17;100.00;50468.03;4952800;28;51130;-55
2021/12/21 05:20:46;;;;;;;;;8.00;8.00;;;;;-147.17;100.00;50458.19;4953796;28;51145;-58
2021/12/21 05:23:12;;;;;;;;;10.75;9.75;;;;;-147.17;100.00;50489.69;4953340;28;51937;-54
2021/12/21 05:25:38;;;;;;;;;12.50;11.75;;;;;-147.17;100.00;50462.13;4953409;28;51134;-55
2021/12/21 05:28:05;;;;;;;;;15.00;14.00;;;;;-147.17;100.00;50477.88;4952520;28;51047;-55
2021/12/21 05:30:30;;;;;;;;;13.00;10.00;;;;;-147.17;100.00;50450.31;4953440;28;51294;-55
2021/12/21 05:32:56;;;;;;;;;14.00;13.75;;;;;-147.17;100.00;50470.00;4952482;28;51906;-58
2021/12/21 05:35:22;;;;;;;;;17.50;15.50;;;;;-147.17;100.00;50477.88;4952078;28;51116;-55
2021/12/21 05:37:52;;;;;;;;;13.75;11.00;;;;;-147.17;100.00;50477.88;4952499;28;51125;-54
2021/12/21 05:40:18;;;;;;;;;11.75;10.50;;;;;-147.17;100.00;50462.13;4953321;28;51046;-56
2021/12/21 05:42:45;;;;;;;;;14.00;13.00;;;;;-147.17;100.00;50466.06;4951442;28;52238;-57
2021/12/21 05:45:14;;;;;;;;;15.00;13.25;;;;;-147.17;100.00;50475.91;4953224;28;50972;-57
2021/12/21 05:47:40;;;;;;;;;9.00;8.50;;;;;-147.17;100.00;50446.38;4951415;28;50993;-56
2021/12/21 05:50:09;;;;;;;;;13.00;10.75;;;;;-147.17;100.00;50466.06;4956017;28;51020;-57
2021/12/21 05:52:34;;;;;;;;;10.00;9.25;;;;;-147.17;100.00;50450.31;4955815;28;51624;-57
2021/12/21 05:55:00;;;;;;;;;17.00;14.75;;;;;-147.17;100.00;50438.50;4955920;28;50969;-57
2021/12/21 05:57:25;;;;;;;;;13.25;12.25;;;;;-147.17;100.00;50458.19;4954840;28;51070;-57
2021/12/21 05:59:51;;;;;;;;;13.25;12.00;;;;;-147.17;100.00;50470.00;4954120;28;51223;-58
2021/12/21 06:02:17;;;;;;;;;11.50;9.25;;;;;-147.17;100.00;50470.00;4955325;28;51865;-56
2021/12/21 06:04:43;;;;;;;;;10.25;9.00;;;;;-147.17;100.00;50475.91;4955030;28;51198;-56
2021/12/21 06:07:08;;;;;;;;;13.25;12.25;;;;;-147.17;100.00;50466.06;4956652;28;51172;-57
2021/12/21 06:09:34;;;;;;;;;10.50;9.25;;;;;-147.17;100.00;50456.22;4955279;28;51307;-57
2021/12/21 06:12:15;;;;;;;;;12.25;10.50;;;;;-147.17;100.00;50456.22;4952813;28;52572;-57
2021/12/21 06:25:35;;;;;;;;;12.25;9.75;;;;;-147.17;100.00;50456.22;4954042;28;51053;-57
2021/12/21 06:28:02;;;;;;;;;9.75;9.75;;;;;-147.17;100.00;50483.78;4953531;28;51479;-58
2021/12/21 06:30:28;;;;;;;;;11.75;10.25;;;;;-147.17;100.00;50452.28;4962646;28;51181;-57
2021/12/21 06:32:53;;;;;;;;;11.75;10.50;;;;;-147.17;100.00;50491.66;4954276;28;51833;-57
2021/12/21 06:35:19;;;;;;;;;15.50;12.50;;;;;-147.17;100.00;50464.09;4956127;28;51059;-57
2021/12/21 06:37:44;;;;;;;;;8.25;7.25;;;;;-147.17;100.00;50440.47;4950060;28;51053;-57
2021/12/21 06:40:10;;;;;;;;;9.75;9.75;;;;;-147.17;100.00;50444.41;4955864;28;51258;-56
2021/12/21 06:42:36;;;;;;;;;10.00;10.00;;;;;-147.17;100.00;50462.13;4954309;28;52244;-56
2021/12/21 06:45:11;;;;;;;;;15.25;13.50;;;;;-147.17;100.00;50466.06;4955620;28;50977;-55
2021/12/21 06:53:04;;;;;;;;;5.00;5.00;;;;;-147.17;100.00;50493.63;4955014;28;50871;-56
2021/12/21 06:58:05;;;;;;;;;13.00;12.75;;;;;-147.17;100.00;50464.09;5149749;22;51125;-55
2021/12/21 07:00:30;;;;;;;;;12.00;10.00;;;;;-147.17;100.00;50475.91;4984895;28;51394;-52
2021/12/21 07:02:56;;;;;;;;;13.50;12.00;;;;;-147.17;100.00;50456.22;4968735;28;52053;-55
2021/12/21 07:05:21;;;;;;;;;10.50;9.00;;;;;-147.17;100.00;50468.03;4955311;28;51023;-56
2021/12/21 07:07:49;;;;;;;;;17.25;13.00;;;;;-147.17;100.00;50442.44;4954323;28;50934;-56
2021/12/21 07:10:22;;;;;;;;;15.00;10.75;;;;;-147.17;100.00;50460.16;4963870;28;51919;-56
2021/12/21 07:18:10;;;;;;;;;9.00;8.50;;;;;-147.17;100.00;50458.19;4982247;28;51012;-56
2021/12/21 07:20:36;;;;;;;;;10.00;9.25;;;;;-147.17;100.00;50458.19;4967224;28;51096;-56
2021/12/21 07:23:03;;;;;;;;;13.25;10.00;;;;;-147.17;100.00;50460.16;4958471;28;52093;-56
2021/12/21 07:25:29;;;;;;;;;13.00;12.00;;;;;-147.17;100.00;50458.19;4956232;28;51053;-54
2021/12/21 07:27:55;;;;;;;;;8.00;5.75;;;;;-147.17;100.00;50468.03;4962932;28;51212;-55
2021/12/21 07:30:21;;;;;;;;;13.00;11.00;;;;;-147.17;100.00;50446.38;4974148;28;51105;-56
2021/12/21 07:32:46;;;;;;;;;13.75;11.75;;;;;-147.17;100.00;50483.78;4973356;28;51861;-56
2021/12/21 07:35:12;;;;;;;;;12.00;12.00;;;;;-147.17;100.00;50454.25;4974171;28;50990;-56
2021/12/21 07:37:38;;;;;;;;;13.25;12.75;;;;;-147.17;100.00;50462.13;4973731;28;51197;-56
2021/12/21 07:40:05;;;;;;;;;14.25;13.25;;;;;-147.17;100.00;50462.13;4974026;28;50925;-56
2021/12/21 07:42:30;;;;;;;;;11.75;10.50;;;;;-147.17;100.00;50456.22;4973197;28;53424;-56
2021/12/21 07:44:55;;;;;;;;;9.75;9.00;;;;;-147.17;100.00;50460.16;4971480;28;51121;-56
2021/12/21 07:47:21;;;;;;;;;11.00;9.50;;;;;-147.17;100.00;50473.94;4965305;28;51281;-57
2021/12/21 07:49:46;;;;;;;;;11.50;11.50;;;;;-147.17;100.00;50481.81;4952402;28;51276;-56
2021/12/21 07:52:13;;;;;;;;;14.75;13.00;;;;;-147.17;100.00;50440.47;4955259;28;51655;-55
2021/12/21 07:54:39;;;;;;;;;16.25;14.75;;;;;-147.17;100.00;50466.06;4954267;28;50897;-55
2021/12/21 07:57:08;;;;;;;;;16.00;13.00;;;;;-147.17;100.00;50454.25;4955249;28;51244;-55
2021/12/21 07:59:35;;;;;;;;;16.25;14.75;;;;;-147.17;100.00;50481.81;4965765;28;51386;-55
2021/12/21 08:02:00;;;;;;;;;11.00;10.50;;;;;-147.17;100.00;50460.16;4954011;28;51777;-56
2021/12/21 08:04:28;;;;;;;;;18.50;15.75;;;;;-147.17;100.00;50466.06;4952842;28;51308;-56
2021/12/21 08:06:57;;;;;;;;;14.25;12.50;;;;;-147.17;100.00;50458.19;4954536;28;50896;-56
2021/12/21 08:09:26;;;;;;;;;13.00;13.00;;;;;-147.17;100.00;50454.25;4954089;28;51295;-56
2021/12/21 08:14:36;;;;;;;;;10.00;9.00;;;;;-147.17;100.00;50446.38;4960176;28;50991;-55
2021/12/21 08:17:01;;;;;;;;;12.00;11.50;;;;;-147.17;100.00;50473.94;4954340;28;51301;-55
2021/12/21 08:19:26;;;;;;;;;9.00;8.00;;;;;-147.17;100.00;50460.16;4954579;28;50932;-56
2021/12/21 08:21:52;;;;;;;;;12.75;9.50;;;;;-147.17;100.00;50477.88;4953982;28;51032;-54
2021/12/21 08:24:17;;;;;;;;;8.00;8.00;;;;;-147.17;100.00;50446.38;4955316;28;51126;-54
2021/12/21 08:26:42;;;;;;;;;12.25;12.00;;;;;-147.17;100.00;50489.69;4954839;28;51086;-56
2021/12/21 08:29:08;;;;;;;;;13.75;13.75;;;;;-147.17;100.00;50440.47;4972648;28;50931;-53
2021/12/21 08:31:33;;;;;;;;;12.50;11.25;;;;;-147.17;100.00;50460.16;4972802;28;51319;-54
2021/12/21 08:33:59;;;;;;;;;15.25;12.00;;;;;-147.17;100.00;50458.19;4973195;28;50942;-54
2021/12/21 08:36:24;;;;;;;;;11.00;11.00;;;;;-147.17;100.00;50462.13;4971849;28;51086;-55
2021/12/21 08:38:50;;;;;;;;;14.00;14.00;;;;;-147.17;100.00;50491.66;4966092;28;51099;-55
2021/12/21 08:41:15;;;;;;;;;11.50;9.50;;;;;-147.17;100.00;50470.00;4953273;28;51684;-55
2021/12/21 08:43:41;;;;;;;;;1.00;0.25;;;;;-147.17;100.00;50456.22;4953879;28;51015;-55
2021/12/21 08:46:09;;;;;;;;;17.00;14.25;;;;;-147.17;100.00;50452.28;4953634;28;51245;-55
2021/12/21 08:48:36;;;;;;;;;16.75;12.50;;;;;-147.17;100.00;50470.00;4954156;28;51078;-55
2021/12/21 08:51:03;;;;;;;;;17.00;16.50;;;;;-147.17;100.00;50471.97;4959548;28;52054;-56
2021/12/21 08:53:29;;;;;;;;;17.50;14.00;;;;;-147.17;100.00;50485.75;4972940;28;51037;-55
2021/12/21 08:55:55;;;;;;;;;14.75;14.50;;;;;-147.17;100.00;50462.13;4972679;28;51006;-56
2021/12/21 08:58:20;;;;;;;;;17.75;13.75;;;;;-147.17;100.00;50470.00;4971941;28;50999;-56
2021/12/21 09:00:46;;;;;;;;;12.75;12.25;;;;;-147.17;100.00;50444.41;4954555;28;51892;-54
2021/12/21 09:03:12;;;;;;;;;3.25;2.75;;;;;-147.17;100.00;50481.81;4953497;28;50932;-55
2021/12/21 09:05:39;;;;;;;;;16.75;15.25;;;;;-147.17;100.00;50454.25;4953179;28;51199;-54
2021/12/21 09:08:06;;;;;;;;;15.25;13.50;;;;;-147.17;100.00;50487.72;4953502;28;51126;-56
2021/12/21 09:10:33;;;;;;;;;14.50;12.00;;;;;-147.17;100.00;50470.00;4952581;28;51717;-56
2021/12/21 09:12:59;;;;;;;;;20.50;17.00;;;;;-147.17;100.00;50456.22;4952986;28;50890;-53
2021/12/21 09:15:26;;;;;;;;;13.25;13.00;;;;;-147.17;100.00;50479.84;4953033;28;52003;-56
2021/12/21 09:17:52;;;;;;;;;18.00;16.00;;;;;-147.17;100.00;50460.16;4953248;28;51102;-55
2021/12/21 09:20:23;;;;;;;;;16.50;15.25;;;;;-147.17;100.00;50470.00;4952590;28;51239;-56
2021/12/21 09:22:49;;;;;;;;;10.25;9.25;;;;;-147.17;100.00;50432.59;4954993;28;51015;-56
2021/12/21 09:25:16;;;;;;;;;14.50;12.75;;;;;-147.17;100.00;50517.25;4959783;28;51239;-56
2021/12/21 09:27:42;;;;;;;;;16.25;14.50;;;;;-147.17;100.00;50466.06;4962897;28;50933;-54
2021/12/21 09:30:10;;;;;;;;;14.50;13.50;;;;;-147.17;100.00;50493.63;4975115;28;51947;-55
2021/12/21 09:32:36;;;;;;;;;13.25;11.00;;;;;-147.17;100.00;50473.94;4975566;28;51124;-53
2021/12/21 09:35:02;;;;;;;;;17.50;16.25;;;;;-147.17;100.00;50470.00;4975529;28;51201;-56
2021/12/21 09:37:27;;;;;;;;;20.25;18.25;;;;;-147.17;100.00;50454.25;4973771;28;51025;-56
2021/12/21 09:39:55;;;;;;;;;19.00;17.25;;;;;-147.17;100.00;50477.88;4975399;28;51843;-56
2021/12/21 09:42:24;;;;;;;;;20.25;18.00;;;;;-147.17;100.00;50450.31;4975517;28;50922;-55
2021/12/21 09:44:50;;;;;;;;;18.50;17.75;;;;;-147.17;100.00;50489.69;4975782;28;50933;-57
2021/12/21 09:47:16;;;;;;;;;17.75;16.75;;;;;-147.17;100.00;50471.97;4975551;28;51375;-54
2021/12/21 09:49:43;;;;;;;;;16.25;10.00;;;;;-147.17;100.00;50485.75;4955532;28;51923;-55
2021/12/21 09:52:11;;;;;;;;;21.00;19.25;;;;;-147.17;100.00;50458.19;4955578;28;51081;-56
2021/12/21 09:54:38;;;;;;;;;14.50;14.00;;;;;-147.17;100.00;50485.75;4954702;28;51023;-54
2021/12/21 09:57:05;;;;;;;;;20.25;17.50;;;;;-147.17;100.00;50454.25;4956734;28;51330;-55
2021/12/21 09:59:30;;;;;;;;;19.25;16.75;;;;;-147.17;100.00;50487.72;4965757;28;51318;-55
2021/12/21 10:01:57;;;;;;;;;19.25;17.75;;;;;-147.17;100.00;50440.47;4955963;28;51173;-57
2021/12/21 10:04:28;;;;;;;;;22.00;18.25;;;;;-147.17;100.00;50473.94;4956199;28;51307;-56
2021/12/21 10:06:55;;;;;;;;;17.00;14.00;;;;;-147.17;100.00;50493.63;4955915;28;51018;-55
2021/12/21 10:09:24;;;;;;;;;16.00;15.25;;;;;-147.17;100.00;50513.31;4955565;28;51073;-57
2021/12/21 10:11:53;;;;;;;;;18.00;16.75;;;;;-147.17;100.00;50470.00;4955114;28;51016;-55
2021/12/21 10:14:23;;;;;;;;;23.75;19.75;;;;;-147.17;100.00;50473.94;4955346;28;50972;-54
2021/12/21 10:17:03;;;;;;;;;14.75;13.75;;;;;-147.17;100.00;50466.06;4958735;28;51150;-58
2021/12/21 10:19:28;;;;;;;;;17.25;17.00;;;;;-147.17;100.00;50464.09;4974775;28;51194;-57
2021/12/21 10:22:10;;;;;;;;;19.25;17.00;;;;;-147.17;100.00;50481.81;4957081;28;51192;-57
2021/12/21 10:24:48;;;;;;;;;21.50;18.50;;;;;-147.17;100.00;50471.97;4973625;28;51052;-55
2021/12/21 10:27:15;;;;;;;;;21.50;21.00;;;;;-147.17;100.00;50483.78;4958236;28;51073;-57
2021/12/21 10:29:46;;;;;;;;;18.00;16.50;;;;;-147.17;100.00;50454.25;4974773;28;51054;-58
2021/12/21 10:32:17;;;;;;;;;21.25;20.75;;;;;-147.17;100.00;50481.81;4972799;28;51039;-56
2021/12/21 10:34:58;;;;;;;;;27.75;22.00;;;;;-147.17;100.00;50493.63;4974094;28;51182;-57
2021/12/21 10:37:32;;;;;;;;;10.50;9.25;;;;;-147.17;100.00;50489.69;4973903;28;50996;-56
2021/12/21 10:40:27;;;;;;;;;20.00;19.50;;;;;-147.17;100.00;50464.09;4963295;28;51389;-55
2021/12/21 10:42:59;;;;;;;;;23.00;18.25;;;;;-147.17;100.00;50473.94;4954652;28;51039;-56
2021/12/21 10:45:33;;;;;;;;;20.75;18.75;;;;;-147.17;100.00;50464.09;4954859;28;51133;-57
2021/12/21 10:48:01;;;;;;;;;19.25;18.50;;;;;-147.17;100.00;50462.13;4962626;28;50893;-55
2021/12/21 10:50:33;;;;;;;;;19.25;18.75;;;;;-147.17;100.00;50456.22;4958718;28;52376;-56
2021/12/21 10:53:00;;;;;;;;;23.00;20.75;;;;;-147.17;100.00;50485.75;4973827;28;50987;-56
2021/12/21 10:55:27;;;;;;;;;21.50;20.25;;;;;-147.17;100.00;50477.88;4973909;28;51244;-54
2021/12/21 10:58:01;;;;;;;;;23.50;21.50;;;;;-147.17;100.00;50471.97;4971534;28;51246;-55
2021/12/21 11:00:26;;;;;;;;;26.75;21.25;;;;;-147.17;100.00;50471.97;4959543;28;51792;-57
2021/12/21 11:02:55;;;;;;;;;18.75;18.25;;;;;-147.17;100.00;50505.44;4954217;28;51119;-55
2021/12/21 11:05:21;;;;;;;;;19.00;18.00;;;;;-147.17;100.00;50489.69;4954144;28;51053;-57
2021/12/21 11:10:25;;;;;;;;;25.75;24.75;;;;;-147.17;100.00;50489.69;4954026;28;51857;-56
2021/12/21 11:12:57;;;;;;;;;24.50;21.75;;;;;-147.17;100.00;50493.63;4953874;28;50890;-55
2021/12/21 11:15:29;;;;;;;;;24.75;23.25;;;;;-147.17;100.00;50479.84;4954192;28;51004;-56
2021/12/21 11:17:55;;;;;;;;;24.75;22.75;;;;;-147.17;100.00;50507.41;4954254;28;51119;-55
2021/12/21 11:20:21;;;;;;;;;27.50;25.50;;;;;-147.17;100.00;50468.03;4952471;28;53108;-56
2021/12/21 11:22:47;;;;;;;;;20.50;18.75;;;;;-147.17;100.00;50485.75;4952931;28;51095;-56
2021/12/21 11:25:14;;;;;;;;;24.50;22.00;;;;;-147.17;100.00;50470.00;4958193;28;50979;-57
2021/12/21 11:27:42;;;;;;;;;25.50;22.50;;;;;-147.17;100.00;50483.78;4960409;28;51042;-55
2021/12/21 11:30:14;;;;;;;;;18.25;18.25;;;;;-147.17;100.00;50519.22;4973089;28;51845;-57
2021/12/21 11:32:44;;;;;;;;;24.50;23.50;;;;;-147.17;100.00;50523.16;4973136;28;51036;-56
2021/12/21 11:37:44;;;;;;;;;18.75;18.00;;;;;-147.17;100.00;50507.41;4972763;28;51418;-57
2021/12/21 11:40:12;;;;;;;;;26.00;23.00;;;;;-147.17;100.00;50519.22;4972925;28;52370;-56
2021/12/21 11:42:50;;;;;;;;;24.75;23.75;;;;;-147.17;100.00;50529.06;4972634;28;51034;-57
2021/12/21 11:45:21;;;;;;;;;20.25;18.50;;;;;-147.17;100.00;50525.13;4970142;28;51054;-55
2021/12/21 11:48:11;;;;;;;;;25.75;23.00;;;;;-147.17;100.00;50499.53;4954737;28;50953;-55
2021/12/21 11:50:43;;;;;;;;;10.50;8.75;;;;;-147.17;100.00;50458.19;4953198;28;53619;-55
2021/12/21 11:53:12;;;;;;;;;28.00;24.75;;;;;-147.17;100.00;50434.56;4953272;28;51115;-56
2021/12/21 11:55:42;;;;;;;;;10.75;9.25;;;;;-147.17;100.00;50521.19;4952962;28;51079;-56
2021/12/21 11:58:36;;;;;;;;;25.00;23.25;;;;;-147.17;100.00;50501.50;4963418;28;51231;-55
2021/12/21 12:01:13;;;;;;;;;19.75;17.50;;;;;-147.17;100.00;50550.72;4964230;28;52816;-56
2021/12/21 12:03:44;;;;;;;;;19.75;19.00;;;;;-147.17;100.00;50533.00;4953627;28;50849;-57
2021/12/21 12:06:15;;;;;;;;;25.25;23.75;;;;;-147.17;99.33;50572.38;4953382;28;51123;-57
2021/12/21 12:08:54;;;;;;;;;18.25;14.50;;;;;-147.17;97.53;50560.56;4953033;28;51025;-57
2021/12/21 12:11:35;;;;;;;;;23.75;23.25;;;;;-147.17;97.99;50544.81;4952895;28;51044;-56
2021/12/21 12:14:10;;;;;;;;;23.50;20.25;;;;;-147.17;97.78;50531.03;4953103;28;51048;-56
2021/12/21 12:16:44;;;;;;;;;18.75;15.50;;;;;-147.17;92.90;50580.25;4953172;28;50877;-57